createdAt,value
2017-10-23T00:01:46.203Z,76.99
2017-10-23T00:04:13.609Z,77.66
2017-10-23T00:06:41.058Z,78.22
2017-10-23T00:09:08.457Z,77.89
2017-10-23T00:11:35.891Z,77.37
2017-10-23T00:14:03.571Z,77.28
2017-10-23T00:16:30.963Z,77.34
2017-10-23T00:18:58.405Z,77.03
2017-10-23T00:21:25.827Z,76.85
2017-10-23T00:23:53.617Z,77.02
2017-10-23T00:26:21.028Z,76.78
2017-10-23T00:28:48.433Z,76.98
2017-10-23T00:31:15.874Z,76.84
2017-10-23T00:33:43.277Z,76.86
2017-10-23T00:36:10.704Z,76.67
2017-10-23T00:38:38.120Z,76.38
2017-10-23T00:41:06.507Z,76.20
2017-10-23T00:43:33.951Z,76.11
2017-10-23T00:46:01.377Z,76.03
2017-10-23T00:48:28.819Z,76.15
2017-10-23T00:50:56.250Z,76.30
2017-10-23T00:53:23.706Z,76.25
2017-10-23T00:55:51.106Z,76.10
2017-10-23T00:58:18.539Z,76.09
2017-10-23T01:00:45.956Z,76.21
2017-10-23T01:03:13.412Z,76.16
2017-10-23T01:05:40.819Z,76.09
2017-10-23T01:08:08.297Z,76.34
2017-10-23T01:10:35.708Z,76.48
2017-10-23T01:13:03.171Z,76.08
2017-10-23T01:15:30.602Z,76.11
2017-10-23T01:17:58.041Z,75.94
2017-10-23T01:20:25.513Z,75.97
2017-10-23T01:22:52.931Z,76.16
2017-10-23T01:25:20.348Z,76.12
2017-10-23T01:27:47.786Z,76.03
2017-10-23T01:30:15.232Z,76.06
2017-10-23T01:32:42.633Z,75.91
2017-10-23T01:35:10.075Z,76.26
2017-10-23T01:37:37.467Z,76.08
2017-10-23T01:40:04.896Z,76.11
2017-10-23T01:42:32.334Z,76.11
2017-10-23T01:44:59.728Z,76.52
2017-10-23T01:47:27.156Z,76.59
2017-10-23T01:49:54.549Z,76.54
2017-10-23T01:52:21.982Z,76.41
2017-10-23T01:54:49.398Z,76.37
2017-10-23T01:57:16.863Z,76.38
2017-10-23T01:59:44.272Z,76.71
2017-10-23T02:02:11.678Z,76.82
2017-10-23T02:04:39.125Z,76.62
2017-10-23T02:07:06.548Z,76.77
2017-10-23T02:09:33.977Z,76.88
2017-10-23T02:12:01.396Z,76.95
2017-10-23T02:14:28.840Z,76.79
2017-10-23T02:16:56.264Z,76.93
2017-10-23T02:19:23.699Z,77.30
2017-10-23T02:21:51.122Z,77.33
2017-10-23T02:24:19.531Z,77.25
2017-10-23T02:26:46.947Z,77.44
2017-10-23T02:29:15.081Z,77.57
2017-10-23T02:31:42.513Z,77.67
2017-10-23T02:34:09.968Z,77.64
2017-10-23T02:36:37.414Z,77.65
2017-10-23T02:39:04.829Z,77.65
2017-10-23T02:41:32.260Z,77.52
2017-10-23T02:43:59.697Z,77.34
2017-10-23T02:46:27.124Z,77.58
2017-10-23T02:48:54.529Z,77.40
2017-10-23T02:51:21.986Z,77.68
2017-10-23T02:53:49.385Z,77.71
2017-10-23T02:56:16.795Z,77.88
2017-10-23T02:58:44.207Z,77.91
2017-10-23T03:01:11.646Z,77.86
2017-10-23T03:03:39.087Z,77.90
2017-10-23T03:06:06.473Z,77.82
2017-10-23T03:08:33.958Z,77.72
2017-10-23T03:11:01.408Z,77.64
2017-10-23T03:13:28.800Z,77.55
2017-10-23T03:15:56.244Z,77.54
2017-10-23T03:18:23.674Z,77.44
2017-10-23T03:20:51.083Z,77.36
2017-10-23T03:23:18.516Z,77.10
2017-10-23T03:25:45.964Z,77.28
2017-10-23T03:28:13.364Z,77.31
2017-10-23T03:30:40.856Z,77.21
2017-10-23T03:33:08.244Z,77.04
2017-10-23T03:35:35.675Z,77.16
2017-10-23T03:38:03.095Z,77.21
2017-10-23T03:40:30.511Z,77.32
2017-10-23T03:42:57.914Z,77.25
2017-10-23T03:45:25.458Z,77.20
2017-10-23T03:47:52.860Z,77.37
2017-10-23T03:50:20.291Z,77.17
2017-10-23T03:52:47.718Z,77.30
2017-10-23T03:55:15.099Z,77.34
2017-10-23T03:57:42.519Z,77.36
2017-10-23T04:00:09.922Z,77.50
2017-10-23T04:02:37.352Z,77.57
2017-10-23T04:05:04.743Z,77.54
2017-10-23T04:07:32.205Z,77.49
2017-10-23T04:09:59.627Z,77.62
2017-10-23T04:12:27.067Z,77.55
2017-10-23T04:14:54.473Z,77.58
2017-10-23T04:17:21.892Z,77.52
2017-10-23T04:19:49.304Z,77.41
2017-10-23T04:22:16.924Z,77.69
2017-10-23T04:24:44.317Z,77.56
2017-10-23T04:27:11.749Z,77.42
2017-10-23T04:29:39.162Z,77.43
2017-10-23T04:32:07.505Z,77.33
2017-10-23T04:34:34.958Z,77.18
2017-10-23T04:37:02.401Z,77.30
2017-10-23T04:39:29.937Z,77.20
2017-10-23T04:41:57.376Z,77.37
2017-10-23T04:44:24.827Z,77.36
2017-10-23T04:46:52.236Z,76.87
2017-10-23T04:49:19.652Z,76.81
2017-10-23T04:51:47.108Z,76.76
2017-10-23T04:54:14.532Z,76.49
2017-10-23T05:02:34.319Z,75.69
2017-10-23T05:05:01.739Z,75.50
2017-10-23T05:07:29.176Z,75.26
2017-10-23T05:09:56.564Z,75.20
2017-10-23T05:12:24.016Z,75.30
2017-10-23T05:14:51.451Z,75.17
2017-10-23T05:17:18.853Z,75.45
2017-10-23T05:19:46.274Z,75.35
2017-10-23T05:22:13.675Z,75.62
2017-10-23T05:24:41.098Z,75.12
2017-10-23T05:27:08.487Z,75.29
2017-10-23T05:29:35.967Z,75.37
2017-10-23T05:32:03.360Z,75.56
2017-10-23T05:34:30.838Z,75.61
2017-10-23T05:36:58.248Z,75.73
2017-10-23T05:39:25.627Z,75.54
2017-10-23T05:41:53.077Z,75.52
2017-10-23T05:44:20.479Z,75.59
2017-10-23T05:46:48.117Z,75.49
2017-10-23T05:49:15.496Z,75.68
2017-10-23T05:51:42.909Z,76.00
2017-10-23T05:54:10.304Z,76.05
2017-10-23T05:56:37.794Z,76.09
2017-10-23T05:59:05.176Z,76.25
2017-10-23T06:01:32.626Z,76.38
2017-10-23T06:04:00.080Z,76.28
2017-10-23T06:06:27.496Z,76.19
2017-10-23T06:08:54.918Z,76.27
2017-10-23T06:11:22.333Z,76.47
2017-10-23T06:13:49.760Z,76.76
2017-10-23T06:16:17.151Z,76.84
2017-10-23T06:18:44.580Z,76.83
2017-10-23T06:21:11.971Z,76.72
2017-10-23T06:23:39.438Z,76.71
2017-10-23T06:26:06.858Z,76.73
2017-10-23T06:28:34.300Z,76.80
2017-10-23T06:31:02.023Z,77.10
2017-10-23T06:33:29.492Z,76.95
2017-10-23T06:35:56.912Z,77.09
2017-10-23T06:38:24.335Z,77.13
2017-10-23T06:40:51.764Z,77.55
2017-10-23T06:43:19.189Z,77.57
2017-10-23T06:45:46.676Z,77.43
2017-10-23T06:48:14.059Z,77.31
2017-10-23T06:50:41.526Z,77.54
2017-10-23T06:53:08.915Z,77.57
2017-10-23T06:55:36.395Z,77.58
2017-10-23T06:58:04.789Z,77.47
2017-10-23T07:00:32.198Z,77.26
2017-10-23T07:02:59.655Z,77.13
2017-10-23T07:05:27.113Z,76.83
2017-10-23T07:07:54.568Z,76.70
2017-10-23T07:10:21.992Z,76.71
2017-10-23T07:12:49.421Z,76.65
2017-10-23T07:15:16.836Z,76.60
2017-10-23T07:17:44.267Z,76.10
2017-10-23T07:20:11.661Z,76.14
2017-10-23T07:22:39.072Z,76.10
2017-10-23T07:25:06.472Z,76.50
2017-10-23T07:27:33.884Z,76.68
2017-10-23T07:30:01.292Z,76.56
2017-10-23T07:32:28.765Z,76.47
2017-10-23T07:34:56.173Z,76.50
2017-10-23T07:37:23.616Z,76.74
2017-10-23T07:39:51.068Z,76.67
2017-10-23T07:42:18.484Z,76.75
2017-10-23T07:44:45.913Z,76.95
2017-10-23T07:47:13.364Z,76.83
2017-10-23T07:49:40.797Z,76.75
2017-10-23T07:52:08.659Z,76.49
2017-10-23T07:54:36.120Z,76.43
2017-10-23T07:57:03.586Z,76.36
2017-10-23T07:59:31.389Z,76.52
2017-10-23T08:01:58.823Z,76.41
2017-10-23T08:04:26.303Z,76.23
2017-10-23T08:06:53.696Z,76.24
2017-10-23T08:09:21.143Z,76.43
2017-10-23T08:11:48.559Z,76.09
2017-10-23T08:14:15.969Z,75.63
2017-10-23T08:16:43.984Z,75.72
2017-10-23T08:19:11.397Z,75.52
2017-10-23T08:21:38.818Z,75.29
2017-10-23T08:24:06.204Z,75.46
2017-10-23T08:26:33.712Z,75.38
2017-10-23T08:29:01.120Z,75.38
2017-10-23T08:31:28.574Z,75.38
2017-10-23T08:33:55.972Z,75.26
2017-10-23T08:36:23.443Z,74.92
2017-10-23T08:38:50.884Z,74.68
2017-10-23T08:41:18.348Z,74.66
2017-10-23T08:43:45.785Z,74.66
2017-10-23T08:46:13.194Z,74.80
2017-10-23T08:48:41.517Z,74.63
2017-10-23T08:51:08.953Z,74.64
2017-10-23T08:53:36.454Z,74.81
2017-10-23T08:56:03.860Z,74.53
2017-10-23T08:58:31.316Z,74.57
2017-10-23T09:00:58.764Z,74.69
2017-10-23T09:03:26.236Z,74.75
2017-10-23T09:05:53.643Z,74.59
2017-10-23T09:08:21.074Z,74.74
2017-10-23T09:10:48.524Z,74.43
2017-10-23T09:13:15.982Z,73.81
2017-10-23T09:15:43.422Z,73.92
2017-10-23T09:18:10.827Z,73.43
2017-10-23T09:20:38.263Z,73.52
2017-10-23T09:23:05.689Z,73.13
2017-10-23T09:25:33.864Z,73.03
2017-10-23T09:28:01.260Z,73.01
2017-10-23T09:30:28.712Z,72.93
2017-10-23T09:32:56.155Z,72.59
2017-10-23T09:35:23.626Z,72.43
2017-10-23T09:37:51.031Z,71.91
2017-10-23T09:40:18.497Z,71.64
2017-10-23T09:42:45.899Z,70.92
2017-10-23T09:45:13.385Z,70.77
2017-10-23T09:47:40.836Z,69.87
2017-10-23T09:50:08.237Z,69.36
2017-10-23T09:52:35.676Z,69.05
2017-10-23T09:55:03.077Z,69.22
2017-10-23T09:57:30.512Z,68.89
2017-10-23T09:59:57.943Z,68.52
2017-10-23T10:02:25.365Z,68.81
2017-10-23T10:04:53.035Z,68.96
2017-10-23T10:07:20.490Z,68.71
2017-10-23T10:09:47.920Z,68.59
2017-10-23T10:12:15.489Z,68.19
2017-10-23T10:14:42.968Z,67.70
2017-10-23T10:17:10.400Z,67.15
2017-10-23T10:19:37.824Z,67.50
2017-10-23T10:22:05.216Z,67.71
2017-10-23T10:24:32.652Z,67.74
2017-10-23T10:27:00.088Z,67.47
2017-10-23T10:29:27.546Z,67.43
2017-10-23T10:31:54.980Z,67.69
2017-10-23T10:34:22.482Z,67.86
2017-10-23T10:36:49.944Z,67.95
2017-10-23T10:39:17.380Z,67.93
2017-10-23T10:41:44.812Z,68.50
2017-10-23T10:44:12.217Z,68.27
2017-10-23T10:46:39.647Z,68.06
2017-10-23T10:49:07.051Z,67.69
2017-10-23T10:51:34.520Z,67.64
2017-10-23T10:54:02.119Z,66.95
2017-10-23T10:56:30.009Z,66.71
2017-10-23T10:58:57.416Z,66.40
2017-10-23T11:01:25.076Z,66.84
2017-10-23T11:03:52.492Z,66.83
2017-10-23T11:06:19.939Z,67.38
2017-10-23T11:08:47.340Z,67.67
2017-10-23T11:11:14.735Z,67.79
2017-10-23T11:13:42.182Z,68.27
2017-10-23T11:16:09.566Z,68.11
2017-10-23T11:18:37.831Z,67.61
2017-10-23T11:21:05.287Z,66.76
2017-10-23T11:23:32.760Z,66.57
2017-10-23T11:26:00.391Z,66.17
2017-10-23T11:28:27.839Z,66.41
2017-10-23T11:30:55.271Z,65.80
2017-10-23T11:33:22.708Z,66.09
2017-10-23T11:35:50.151Z,66.31
2017-10-23T11:38:17.584Z,66.36
2017-10-23T11:40:45.012Z,66.51
2017-10-23T11:43:12.454Z,66.90
2017-10-23T11:45:40.061Z,66.46
2017-10-23T11:48:07.464Z,66.52
2017-10-23T11:50:34.879Z,66.47
2017-10-23T11:53:02.347Z,66.56
2017-10-23T11:55:29.768Z,66.15
2017-10-23T11:57:57.224Z,66.07
2017-10-23T12:00:24.608Z,65.67
2017-10-23T12:02:52.292Z,65.59
2017-10-23T12:05:19.704Z,65.49
2017-10-23T12:07:47.138Z,65.52
2017-10-23T12:10:14.536Z,65.35
2017-10-23T12:12:41.973Z,64.95
2017-10-23T12:15:09.392Z,65.18
2017-10-23T12:17:36.799Z,65.44
2017-10-23T12:20:04.264Z,64.91
2017-10-23T12:22:31.699Z,65.05
2017-10-23T12:24:59.141Z,64.99
2017-10-23T12:27:26.523Z,65.46
2017-10-23T12:29:53.963Z,65.26
2017-10-23T12:32:21.443Z,65.38
2017-10-23T12:34:48.888Z,65.87
2017-10-23T12:37:16.286Z,65.71
2017-10-23T12:39:43.815Z,65.52
2017-10-23T12:42:11.239Z,65.68
2017-10-23T12:44:40.060Z,65.76
2017-10-23T12:47:07.487Z,65.91
2017-10-23T12:49:35.005Z,66.18
2017-10-23T12:52:02.441Z,65.91
2017-10-23T12:54:29.857Z,65.83
2017-10-23T12:56:57.323Z,65.42
2017-10-23T12:59:25.542Z,65.41
2017-10-23T13:01:52.976Z,65.15
2017-10-23T13:04:20.422Z,65.28
2017-10-23T13:06:47.870Z,65.29
2017-10-23T13:09:15.352Z,65.44
2017-10-23T13:11:42.868Z,65.75
2017-10-23T13:14:10.297Z,66.07
2017-10-23T13:16:37.712Z,66.32
2017-10-23T13:19:05.311Z,66.16
2017-10-23T13:21:32.709Z,65.84
2017-10-23T13:24:00.120Z,65.49
2017-10-23T13:26:28.104Z,64.84
2017-10-23T13:28:55.517Z,65.01
2017-10-23T13:31:22.997Z,65.21
2017-10-23T13:33:50.412Z,64.97
2017-10-23T13:36:17.877Z,64.84
2017-10-23T13:38:45.284Z,64.94
2017-10-23T13:41:12.736Z,64.94
2017-10-23T13:43:40.149Z,65.04
2017-10-23T13:46:07.647Z,65.17
2017-10-23T13:48:35.100Z,65.29
2017-10-23T13:51:03.483Z,65.65
2017-10-23T13:53:30.963Z,65.32
2017-10-23T13:55:58.365Z,65.20
2017-10-23T13:58:28.013Z,64.59
2017-10-23T14:00:55.459Z,65.05
2017-10-23T14:03:22.928Z,64.95
2017-10-23T14:05:50.346Z,65.38
2017-10-23T14:08:18.503Z,65.78
2017-10-23T14:10:45.928Z,66.09
2017-10-23T14:13:13.387Z,66.21
2017-10-23T14:15:40.840Z,65.98
2017-10-23T14:18:08.285Z,66.27
2017-10-23T14:20:35.740Z,66.43
2017-10-23T14:23:03.153Z,66.57
2017-10-23T14:25:30.735Z,66.76
2017-10-23T14:27:58.226Z,67.22
2017-10-23T14:30:25.662Z,67.11
2017-10-23T14:32:53.071Z,67.05
2017-10-23T14:35:20.536Z,66.92
2017-10-23T14:37:47.989Z,67.04
2017-10-23T14:40:15.448Z,67.08
2017-10-23T14:42:42.874Z,67.01
2017-10-23T14:45:10.292Z,66.90
2017-10-23T14:47:37.727Z,66.82
2017-10-23T14:50:05.144Z,67.34
2017-10-23T14:52:32.587Z,67.58
2017-10-23T14:55:00.022Z,67.56
2017-10-23T14:57:27.521Z,67.45
2017-10-23T14:59:54.983Z,67.80
2017-10-23T15:02:23.076Z,67.87
2017-10-23T15:04:50.532Z,68.13
2017-10-23T15:07:18.073Z,68.47
2017-10-23T15:09:45.515Z,68.39
2017-10-23T15:12:12.973Z,68.66
2017-10-23T15:14:40.420Z,68.77
2017-10-23T15:17:08.704Z,69.03
2017-10-23T15:19:36.197Z,68.70
2017-10-23T15:22:03.676Z,68.80
2017-10-23T15:24:31.080Z,68.83
2017-10-23T15:26:58.556Z,69.31
2017-10-23T15:29:26.153Z,69.67
2017-10-23T15:31:53.659Z,69.68
2017-10-23T15:34:21.171Z,69.62
2017-10-23T15:36:48.641Z,69.57
2017-10-23T15:39:16.076Z,74.74
2017-10-23T15:41:43.580Z,70.46
2017-10-23T15:44:11.056Z,69.60
2017-10-23T15:46:38.543Z,69.73
2017-10-23T15:49:05.955Z,70.67
2017-10-23T15:51:34.784Z,70.51
2017-10-23T15:54:02.293Z,70.67
2017-10-23T15:56:29.762Z,68.57
2017-10-23T15:58:57.185Z,69.09
2017-10-23T16:01:24.627Z,69.83
2017-10-23T16:03:52.094Z,70.16
2017-10-23T16:06:19.527Z,70.29
2017-10-23T16:08:47.063Z,70.44
2017-10-23T16:11:14.501Z,70.82
2017-10-23T16:13:41.944Z,71.46
2017-10-23T16:16:09.412Z,71.63
2017-10-23T16:18:37.633Z,71.83
2017-10-23T16:21:08.703Z,71.89
2017-10-23T16:23:36.266Z,72.06
2017-10-23T16:26:03.732Z,72.18
2017-10-23T16:28:31.292Z,72.22
2017-10-23T16:30:59.051Z,72.22
2017-10-23T16:33:26.988Z,72.34
2017-10-23T16:35:55.398Z,72.92
2017-10-23T16:38:22.868Z,73.17
2017-10-23T16:40:50.332Z,73.09
2017-10-23T16:43:17.757Z,73.17
2017-10-23T16:45:45.200Z,73.34
2017-10-23T16:48:12.625Z,73.50
2017-10-23T16:50:41.049Z,73.52
2017-10-23T16:53:08.457Z,73.69
2017-10-23T16:55:35.921Z,74.15
2017-10-23T16:58:03.332Z,74.49
2017-10-23T17:00:30.788Z,74.52
2017-10-23T17:02:58.236Z,74.49
2017-10-23T17:05:25.705Z,74.19
2017-10-23T17:07:53.142Z,74.40
2017-10-23T17:10:20.555Z,74.36
2017-10-23T17:12:48.078Z,74.47
2017-10-23T17:15:16.567Z,74.41
2017-10-23T17:17:44.091Z,74.53
2017-10-23T17:20:12.483Z,74.65
2017-10-23T17:22:39.927Z,74.85
2017-10-23T17:25:07.357Z,74.76
2017-10-23T17:27:34.804Z,74.88
2017-10-23T17:30:02.237Z,74.85
2017-10-23T17:32:29.660Z,74.78
2017-10-23T17:34:58.049Z,74.89
2017-10-23T17:37:27.036Z,75.20
2017-10-23T17:39:54.513Z,75.27
2017-10-23T17:42:21.995Z,75.24
2017-10-23T17:44:49.809Z,75.34
2017-10-23T17:47:17.254Z,75.39
2017-10-23T17:49:44.719Z,75.23
2017-10-23T17:52:12.173Z,75.10
2017-10-23T17:54:39.766Z,74.94
2017-10-23T17:57:07.264Z,75.31
2017-10-23T17:59:34.770Z,75.47
2017-10-23T18:02:02.200Z,75.50
2017-10-23T18:04:29.634Z,75.86
2017-10-23T18:06:57.076Z,75.71
2017-10-23T18:09:24.485Z,75.39
2017-10-23T18:11:52.006Z,75.37
2017-10-23T18:14:19.459Z,75.63
2017-10-23T18:16:48.125Z,75.62
2017-10-23T18:19:15.622Z,75.56
2017-10-23T18:21:43.045Z,75.48
2017-10-23T18:24:10.550Z,75.55
2017-10-23T18:26:39.794Z,75.57
2017-10-23T18:29:07.468Z,75.71
2017-10-23T18:31:34.880Z,75.72
2017-10-23T18:34:02.454Z,75.65
2017-10-23T18:36:30.922Z,76.23
2017-10-23T18:38:58.389Z,76.56
2017-10-23T18:41:25.826Z,76.63
2017-10-23T18:43:53.260Z,76.72
2017-10-23T18:46:20.738Z,76.69
2017-10-23T18:48:48.155Z,76.76
2017-10-23T18:51:16.797Z,76.90
2017-10-23T18:53:44.306Z,76.93
2017-10-23T18:56:13.592Z,76.72
2017-10-23T18:58:42.804Z,76.74
2017-10-23T19:01:10.425Z,76.62
2017-10-23T19:03:38.778Z,76.68
2017-10-23T19:06:06.175Z,76.44
2017-10-23T19:08:33.607Z,76.37
2017-10-23T19:11:01.023Z,76.43
2017-10-23T19:13:28.969Z,77.11
2017-10-23T19:15:56.383Z,76.93
2017-10-23T19:18:23.865Z,77.42
2017-10-23T19:20:51.502Z,77.85
2017-10-23T19:23:18.934Z,77.91
2017-10-23T19:25:46.372Z,78.23
2017-10-23T19:28:13.856Z,78.61
2017-10-23T19:30:41.288Z,78.29
2017-10-23T19:33:08.767Z,78.21
2017-10-23T19:35:36.201Z,78.25
2017-10-23T19:38:03.664Z,78.07
2017-10-23T19:40:31.165Z,77.98
2017-10-23T19:42:58.578Z,78.12
2017-10-23T19:45:26.023Z,78.02
2017-10-23T19:47:53.506Z,78.25
2017-10-23T19:50:24.851Z,78.45
2017-10-23T19:52:54.489Z,78.77
2017-10-23T19:55:21.937Z,79.29
2017-10-23T19:57:49.365Z,79.22
2017-10-23T20:00:17.540Z,79.29
2017-10-23T20:02:44.957Z,79.68
2017-10-23T20:05:12.416Z,80.17
2017-10-23T20:07:39.901Z,80.35
2017-10-23T20:10:07.297Z,80.41
2017-10-23T20:12:34.789Z,80.21
2017-10-23T20:15:02.185Z,80.23
2017-10-23T20:17:29.628Z,80.09
2017-10-23T20:19:57.036Z,79.96
2017-10-23T20:22:24.501Z,79.80
2017-10-23T20:24:51.901Z,79.85
2017-10-23T20:27:19.361Z,79.98
2017-10-23T20:29:46.766Z,79.98
2017-10-23T20:32:14.231Z,80.44
2017-10-23T20:34:41.657Z,80.48
2017-10-23T20:37:09.088Z,80.69
2017-10-23T20:39:36.555Z,80.72
2017-10-23T20:42:03.972Z,80.65
2017-10-23T20:44:31.453Z,80.48
2017-10-23T20:46:58.852Z,80.42
2017-10-23T20:49:26.307Z,80.53
2017-10-23T20:51:53.714Z,80.59
2017-10-23T20:54:21.141Z,80.49
2017-10-23T20:56:48.532Z,81.00
2017-10-23T20:59:15.996Z,81.35
2017-10-23T21:01:43.419Z,81.02
2017-10-23T21:04:10.864Z,81.26
2017-10-23T21:06:38.259Z,81.56
2017-10-23T21:09:05.697Z,81.98
2017-10-23T21:11:33.133Z,81.82
2017-10-23T21:14:00.545Z,81.65
2017-10-23T21:16:27.978Z,81.81
2017-10-23T21:18:55.476Z,81.46
2017-10-23T21:21:22.896Z,81.61
2017-10-23T21:23:50.400Z,81.93
2017-10-23T21:26:17.825Z,81.84
2017-10-23T21:28:45.498Z,81.65
2017-10-23T21:31:12.909Z,81.70
2017-10-23T21:33:40.361Z,81.88
2017-10-23T21:36:07.740Z,81.91
2017-10-23T21:38:35.206Z,81.67
2017-10-23T21:41:02.637Z,81.56
2017-10-23T21:43:30.054Z,81.34
2017-10-23T21:45:57.461Z,81.43
2017-10-23T21:48:24.896Z,81.46
2017-10-23T21:50:52.294Z,81.39
2017-10-23T21:53:19.724Z,81.13
2017-10-23T21:55:47.190Z,81.08
2017-10-23T21:58:14.590Z,80.94
2017-10-23T22:00:42.017Z,80.89
2017-10-23T22:03:09.463Z,81.01
2017-10-23T22:05:36.899Z,81.03
2017-10-23T22:08:04.347Z,80.93
2017-10-23T22:10:31.809Z,81.10
2017-10-23T22:12:59.230Z,81.24
2017-10-23T22:15:26.692Z,81.18
2017-10-23T22:17:54.152Z,81.10
2017-10-23T22:20:21.579Z,81.16
2017-10-23T22:22:49.020Z,81.06
2017-10-23T22:25:16.466Z,81.21
2017-10-23T22:27:43.926Z,81.30
2017-10-23T22:30:11.372Z,81.16
2017-10-23T22:32:38.834Z,81.17
2017-10-23T22:35:06.291Z,80.95
2017-10-23T22:37:33.779Z,80.90
2017-10-23T22:40:01.220Z,80.76
2017-10-23T22:42:28.639Z,80.71
2017-10-23T22:44:56.098Z,81.02
2017-10-23T22:47:23.530Z,80.97
2017-10-23T22:49:50.932Z,81.23
2017-10-23T22:52:18.385Z,81.23
2017-10-23T22:54:45.787Z,81.32
2017-10-23T22:57:13.208Z,81.15
2017-10-23T22:59:40.636Z,80.96
2017-10-23T23:02:08.093Z,81.21
2017-10-23T23:04:35.506Z,81.26
2017-10-23T23:07:02.922Z,81.29
2017-10-23T23:09:30.403Z,81.14
2017-10-23T23:11:57.817Z,81.08
2017-10-23T23:14:25.288Z,80.93
2017-10-23T23:16:52.687Z,80.99
2017-10-23T23:19:20.135Z,80.98
2017-10-23T23:21:47.544Z,81.04
2017-10-23T23:24:15.020Z,81.08
2017-10-23T23:26:42.414Z,80.91
2017-10-23T23:29:09.843Z,80.84
2017-10-23T23:31:37.259Z,80.80
2017-10-23T23:34:04.760Z,80.80
2017-10-23T23:36:32.180Z,81.23
2017-10-23T23:38:59.630Z,80.97
2017-10-23T23:41:27.097Z,80.88
2017-10-23T23:43:54.500Z,80.86
2017-10-23T23:46:21.930Z,81.24
2017-10-23T23:48:49.345Z,81.15
2017-10-23T23:51:16.829Z,81.42
2017-10-23T23:53:44.232Z,81.28
2017-10-23T23:56:11.692Z,81.20
2017-10-23T23:58:39.107Z,81.50
